Time;durP1;ratioP1;P1;durP2;ratioP2;P2;SDS_P1;SDS_P2;PMS_P1;PMS_P2;Temp;Humidity;BMP_temperature;BMP_pressure;BME280_temperature;BME280_humidity;BME280_pressure;Samples;Min_cycle;Max_cycle;Signal;HPM_P1;HPM_P2
2024/01/28 00:00:34;;;;;;;6.40;2.30;;;4.30;99.90;;;;;;5028998;28;20441;-73
2024/01/28 00:03:00;;;;;;;3.83;2.60;;;4.30;99.90;;;;;;5029171;28;20445;-73
2024/01/28 00:05:25;;;;;;;4.47;2.77;;;4.20;99.90;;;;;;5028060;28;20184;-73
2024/01/28 00:07:51;;;;;;;4.70;2.80;;;4.30;99.90;;;;;;5028137;28;20190;-73
2024/01/28 00:10:16;;;;;;;4.27;2.50;;;4.30;99.90;;;;;;5027477;28;20663;-73
2024/01/28 00:12:42;;;;;;;5.30;2.60;;;4.30;99.90;;;;;;5029642;28;21101;-73
2024/01/28 00:15:10;;;;;;;5.90;3.70;;;4.40;99.90;;;;;;5027850;28;20185;-73
2024/01/28 00:17:36;;;;;;;4.97;1.90;;;4.50;99.90;;;;;;5026874;28;20228;-73
2024/01/28 00:20:05;;;;;;;3.73;2.27;;;4.40;99.90;;;;;;5021603;28;20461;-74
2024/01/28 00:22:31;;;;;;;4.53;2.53;;;4.50;99.90;;;;;;5025796;28;20439;-73
2024/01/28 00:24:57;;;;;;;6.70;3.17;;;4.40;99.90;;;;;;5028917;28;21012;-73
2024/01/28 00:27:22;;;;;;;3.43;2.37;;;4.40;99.90;;;;;;5028268;28;20519;-73
2024/01/28 00:29:48;;;;;;;2.93;2.40;;;4.40;99.90;;;;;;5032558;28;20249;-73
2024/01/28 00:32:14;;;;;;;5.90;2.40;;;4.30;99.90;;;;;;5031726;28;20185;-73
2024/01/28 00:34:40;;;;;;;3.70;2.10;;;4.30;99.90;;;;;;5032532;28;20170;-73
2024/01/28 00:37:06;;;;;;;8.60;2.47;;;4.40;99.90;;;;;;5032216;28;20970;-73
2024/01/28 00:39:32;;;;;;;4.30;1.90;;;4.30;99.90;;;;;;5032457;28;20503;-73
2024/01/28 00:41:58;;;;;;;5.23;1.97;;;4.30;99.90;;;;;;5030995;28;20281;-73
2024/01/28 00:44:24;;;;;;;4.50;2.23;;;4.40;99.90;;;;;;5032596;28;20524;-73
2024/01/28 00:46:50;;;;;;;6.67;2.80;;;4.40;99.90;;;;;;5031362;28;20534;-73
2024/01/28 00:49:15;;;;;;;4.07;2.50;;;4.40;99.90;;;;;;5032176;28;20218;-73
2024/01/28 00:51:41;;;;;;;2.70;2.13;;;4.40;99.90;;;;;;5031481;28;20220;-73
2024/01/28 00:54:07;;;;;;;7.50;2.90;;;4.50;99.90;;;;;;5032920;28;20220;-73
2024/01/28 00:56:33;;;;;;;3.93;1.97;;;4.40;99.90;;;;;;5031077;28;20421;-73
2024/01/28 00:58:59;;;;;;;2.43;2.03;;;4.40;99.90;;;;;;5031903;28;20436;-73
2024/01/28 01:01:25;;;;;;;4.20;1.80;;;4.40;99.90;;;;;;5031492;28;20839;-73
2024/01/28 01:03:50;;;;;;;6.47;2.77;;;4.40;99.90;;;;;;5030823;28;20186;-73
2024/01/28 01:06:16;;;;;;;5.30;2.30;;;4.40;99.90;;;;;;5030648;28;20217;-73
2024/01/28 01:08:42;;;;;;;5.00;2.83;;;4.50;99.90;;;;;;5031640;28;20213;-73
2024/01/28 01:11:08;;;;;;;5.13;2.47;;;4.60;99.90;;;;;;5032088;28;20592;-73
2024/01/28 01:13:34;;;;;;;5.40;2.70;;;4.60;99.90;;;;;;5015873;28;20186;-73
2024/01/28 01:16:00;;;;;;;3.97;2.17;;;4.60;99.90;;;;;;5031352;28;20186;-73
2024/01/28 01:18:25;;;;;;;4.73;2.63;;;4.60;99.90;;;;;;5031578;28;20429;-73
2024/01/28 01:20:52;;;;;;;4.97;2.33;;;4.50;99.90;;;;;;5031212;28;20428;-73
2024/01/28 01:23:18;;;;;;;4.50;2.30;;;4.50;99.90;;;;;;5031264;28;20640;-73
2024/01/28 01:25:44;;;;;;;5.17;2.40;;;4.50;99.90;;;;;;5030713;28;20563;-73
2024/01/28 01:28:10;;;;;;;3.70;2.40;;;4.50;99.90;;;;;;5029602;28;20221;-73
2024/01/28 01:30:36;;;;;;;4.60;2.23;;;4.50;99.90;;;;;;5030483;28;20860;-73
2024/01/28 01:33:02;;;;;;;6.97;2.37;;;4.60;99.90;;;;;;5031121;28;20433;-73
2024/01/28 01:35:27;;;;;;;4.90;2.00;;;4.60;99.90;;;;;;5027591;28;20437;-73
2024/01/28 01:37:56;;;;;;;3.07;2.00;;;4.50;99.90;;;;;;5030880;28;20448;-73
2024/01/28 01:40:22;;;;;;;3.87;2.07;;;4.50;99.90;;;;;;5031303;28;20901;-73
2024/01/28 01:42:48;;;;;;;5.33;2.10;;;4.50;99.90;;;;;;5028860;28;20524;-73
2024/01/28 01:45:14;;;;;;;2.57;1.90;;;4.50;99.90;;;;;;5031315;28;20198;-73
2024/01/28 01:47:41;;;;;;;4.43;1.67;;;4.50;99.90;;;;;;5029771;28;20212;-73
2024/01/28 01:50:10;;;;;;;2.70;1.70;;;4.50;99.90;;;;;;5029811;28;20535;-73
2024/01/28 01:52:39;;;;;;;2.47;1.30;;;4.50;99.90;;;;;;5029915;28;20441;-73
2024/01/28 01:55:06;;;;;;;2.90;1.73;;;4.60;99.90;;;;;;5029881;28;20441;-73
2024/01/28 01:57:32;;;;;;;4.80;2.80;;;4.60;99.90;;;;;;5030458;28;20859;-73
2024/01/28 01:59:58;;;;;;;6.73;3.37;;;4.60;99.90;;;;;;5030927;28;20437;-73
2024/01/28 02:02:26;;;;;;;3.50;1.70;;;4.60;99.90;;;;;;5031258;28;20487;-73
2024/01/28 02:04:51;;;;;;;2.70;1.83;;;4.60;99.90;;;;;;5029595;28;20310;-73
2024/01/28 02:07:17;;;;;;;6.83;2.77;;;4.60;99.90;;;;;;5028338;28;20441;-73
2024/01/28 02:09:43;;;;;;;6.17;1.87;;;4.60;99.90;;;;;;5030240;28;20468;-73
2024/01/28 02:12:09;;;;;;;2.87;1.90;;;4.50;99.90;;;;;;5029078;28;20194;-73
2024/01/28 02:14:35;;;;;;;6.53;2.00;;;4.50;99.90;;;;;;5029310;28;20436;-73
2024/01/28 02:17:01;;;;;;;6.70;1.53;;;4.60;99.90;;;;;;5029443;28;20421;-74
2024/01/28 02:19:27;;;;;;;3.83;1.93;;;4.60;99.90;;;;;;5030682;28;20188;-73
2024/01/28 02:21:53;;;;;;;5.90;1.60;;;4.60;99.90;;;;;;5028790;28;21291;-73
2024/01/28 02:24:19;;;;;;;2.40;1.67;;;4.70;99.90;;;;;;5028422;28;20447;-73
2024/01/28 02:26:45;;;;;;;5.50;1.70;;;4.60;99.90;;;;;;5028593;28;20461;-73
2024/01/28 02:29:11;;;;;;;3.97;1.57;;;4.70;99.90;;;;;;5028242;28;20614;-73
2024/01/28 02:31:36;;;;;;;2.20;1.37;;;4.60;99.90;;;;;;5029904;28;20595;-73
2024/01/28 02:34:02;;;;;;;3.30;2.10;;;4.60;99.90;;;;;;5030471;28;20193;-73
2024/01/28 02:36:29;;;;;;;3.30;1.60;;;4.70;99.90;;;;;;5029428;28;20600;-73
2024/01/28 02:38:54;;;;;;;2.30;1.37;;;4.60;99.90;;;;;;5028712;28;20185;-73
2024/01/28 02:41:20;;;;;;;6.07;1.80;;;4.60;99.90;;;;;;5028264;28;20430;-73
2024/01/28 02:43:46;;;;;;;3.33;1.70;;;4.70;99.90;;;;;;5029831;28;20728;-73
2024/01/28 02:46:14;;;;;;;5.53;1.70;;;4.80;99.90;;;;;;5029536;28;20432;-73
2024/01/28 02:48:40;;;;;;;4.97;2.27;;;4.80;99.90;;;;;;5028010;28;20560;-73
2024/01/28 02:51:06;;;;;;;2.50;1.67;;;4.80;99.90;;;;;;5028477;28;22197;-73
2024/01/28 02:53:32;;;;;;;2.80;1.90;;;4.80;99.90;;;;;;5029628;28;20428;-73
2024/01/28 02:56:00;;;;;;;6.40;1.93;;;4.90;99.90;;;;;;5028920;28;20429;-73
2024/01/28 02:58:30;;;;;;;3.67;1.70;;;4.90;99.90;;;;;;5031038;28;20179;-73
2024/01/28 03:00:55;;;;;;;2.83;1.60;;;4.90;99.90;;;;;;5028284;28;20433;-73
2024/01/28 03:03:21;;;;;;;4.07;1.70;;;4.90;99.90;;;;;;5029190;28;20499;-73
2024/01/28 03:05:47;;;;;;;2.70;2.10;;;4.90;99.90;;;;;;5028823;28;20190;-73
2024/01/28 03:08:13;;;;;;;2.30;1.60;;;5.00;99.90;;;;;;5029333;28;20583;-73
2024/01/28 03:10:39;;;;;;;2.07;1.30;;;5.00;99.90;;;;;;5028643;28;20182;-73
2024/01/28 03:13:05;;;;;;;3.17;1.90;;;5.00;99.90;;;;;;5028583;28;20825;-73
2024/01/28 03:15:31;;;;;;;3.57;1.70;;;5.00;99.90;;;;;;5029756;28;20420;-73
2024/01/28 03:17:56;;;;;;;4.27;1.60;;;4.90;99.90;;;;;;5030038;28;20174;-73
2024/01/28 03:20:25;;;;;;;4.20;1.70;;;4.90;99.90;;;;;;5029760;28;20175;-73
2024/01/28 03:22:51;;;;;;;2.43;1.67;;;5.00;99.90;;;;;;5029461;28;20562;-73
2024/01/28 03:25:16;;;;;;;4.17;2.30;;;5.00;99.90;;;;;;5029021;28;20430;-73
2024/01/28 03:27:42;;;;;;;3.10;1.73;;;5.00;99.90;;;;;;5028200;28;20996;-73
2024/01/28 03:30:08;;;;;;;4.83;1.93;;;5.10;99.90;;;;;;5030489;28;20472;-73
2024/01/28 03:32:34;;;;;;;6.57;2.07;;;5.10;99.90;;;;;;5032004;28;20275;-74
2024/01/28 03:35:03;;;;;;;2.53;1.40;;;5.10;99.90;;;;;;5030914;28;20479;-74
2024/01/28 03:37:29;;;;;;;2.60;1.70;;;5.10;99.90;;;;;;5063126;28;20228;-74
2024/01/28 03:39:54;;;;;;;3.87;1.90;;;5.10;99.90;;;;;;5031079;28;21142;-73
2024/01/28 03:42:23;;;;;;;3.77;1.50;;;5.10;99.90;;;;;;5031240;28;20185;-73
2024/01/28 03:44:49;;;;;;;3.50;1.70;;;5.10;99.90;;;;;;5031233;28;20194;-74
2024/01/28 03:47:15;;;;;;;5.07;1.60;;;5.10;99.90;;;;;;5030393;28;20432;-73
2024/01/28 03:49:40;;;;;;;3.57;1.60;;;5.10;99.90;;;;;;5029117;28;20482;-73
2024/01/28 03:52:06;;;;;;;2.60;2.00;;;5.10;99.90;;;;;;5029007;28;20213;-73
2024/01/28 03:54:32;;;;;;;4.33;1.60;;;5.20;99.90;;;;;;5030472;28;20185;-73
2024/01/28 03:56:57;;;;;;;1.90;1.47;;;5.20;99.90;;;;;;5028185;28;20186;-73
2024/01/28 03:59:24;;;;;;;1.50;1.40;;;5.20;99.90;;;;;;5029196;28;20235;-73
2024/01/28 04:01:49;;;;;;;2.20;1.53;;;5.10;99.90;;;;;;5030260;28;20637;-73
2024/01/28 04:04:15;;;;;;;1.97;1.40;;;5.20;99.90;;;;;;5030848;28;20424;-73
2024/01/28 04:06:43;;;;;;;4.73;1.53;;;5.10;99.90;;;;;;5029037;28;20182;-73
2024/01/28 04:09:09;;;;;;;7.23;1.77;;;5.10;99.90;;;;;;5013704;28;20271;-73
2024/01/28 04:11:35;;;;;;;2.20;1.30;;;5.10;99.90;;;;;;5029647;28;20432;-73
2024/01/28 04:14:01;;;;;;;2.67;1.73;;;5.20;99.90;;;;;;5029807;28;20944;-73
2024/01/28 04:16:26;;;;;;;2.30;1.50;;;5.20;99.90;;;;;;5029649;28;20188;-73
2024/01/28 04:18:52;;;;;;;2.83;1.40;;;5.20;99.90;;;;;;5030865;28;20660;-73
2024/01/28 04:21:18;;;;;;;4.07;1.63;;;5.20;99.90;;;;;;5029315;28;20192;-73
2024/01/28 04:23:46;;;;;;;3.53;1.40;;;5.10;99.90;;;;;;5029677;28;20668;-72
2024/01/28 04:26:12;;;;;;;2.93;1.77;;;5.10;99.90;;;;;;5028401;28;20268;-73
2024/01/28 04:28:40;;;;;;;3.13;1.43;;;5.20;99.90;;;;;;5029519;28;20535;-73
2024/01/28 04:31:07;;;;;;;4.20;1.50;;;5.10;99.90;;;;;;5028399;28;20516;-73
2024/01/28 04:33:32;;;;;;;2.80;1.40;;;5.10;99.90;;;;;;5030906;28;20439;-73
2024/01/28 04:35:58;;;;;;;2.70;1.90;;;5.10;99.90;;;;;;5030323;28;20448;-73
2024/01/28 04:38:24;;;;;;;2.50;1.60;;;5.10;99.90;;;;;;5028698;28;20603;-73
2024/01/28 04:40:49;;;;;;;2.83;1.90;;;5.10;99.90;;;;;;5030371;28;20183;-73
2024/01/28 04:43:15;;;;;;;3.03;1.73;;;5.00;99.90;;;;;;5029317;28;20221;-73
2024/01/28 04:45:41;;;;;;;3.50;1.60;;;5.00;99.90;;;;;;5028458;28;20255;-73
2024/01/28 04:48:07;;;;;;;2.87;1.23;;;5.00;99.90;;;;;;5026133;28;20535;-73
2024/01/28 04:50:33;;;;;;;3.27;1.30;;;5.00;99.90;;;;;;5024589;28;20174;-73
2024/01/28 04:52:58;;;;;;;2.87;1.93;;;5.00;99.90;;;;;;5030076;28;20211;-73
2024/01/28 04:55:24;;;;;;;2.43;1.60;;;5.00;99.90;;;;;;5028898;28;20193;-73
2024/01/28 04:57:50;;;;;;;5.70;1.33;;;5.00;99.90;;;;;;5030556;28;20197;-73
2024/01/28 05:00:16;;;;;;;3.00;1.77;;;5.00;99.90;;;;;;5029511;28;20194;-73
2024/01/28 05:02:42;;;;;;;2.73;1.50;;;5.00;99.90;;;;;;5029369;28;20182;-73
2024/01/28 05:05:08;;;;;;;2.37;1.50;;;5.00;99.90;;;;;;5029303;28;20425;-73
2024/01/28 05:07:34;;;;;;;2.50;1.37;;;5.00;99.90;;;;;;5030484;28;20879;-73
2024/01/28 05:09:59;;;;;;;2.23;1.50;;;5.00;99.90;;;;;;5030589;28;21257;-74
2024/01/28 05:12:25;;;;;;;1.50;1.30;;;5.00;99.90;;;;;;5031350;28;20486;-74
2024/01/28 05:14:51;;;;;;;2.93;1.03;;;5.10;99.90;;;;;;5033880;28;20193;-74
2024/01/28 05:17:17;;;;;;;3.73;1.43;;;5.10;99.90;;;;;;5063885;28;20179;-73
2024/01/28 05:19:43;;;;;;;3.37;1.53;;;5.10;99.90;;;;;;5033494;28;20433;-74
2024/01/28 05:22:08;;;;;;;6.30;1.50;;;5.10;99.90;;;;;;5032875;28;20241;-74
2024/01/28 05:24:34;;;;;;;3.73;1.40;;;5.10;99.90;;;;;;5033364;28;20216;-74
2024/01/28 05:27:02;;;;;;;3.40;1.47;;;5.20;99.90;;;;;;5032081;28;20194;-73
2024/01/28 05:29:28;;;;;;;4.20;1.20;;;5.20;99.90;;;;;;5032304;28;20606;-73
2024/01/28 05:31:53;;;;;;;4.23;1.60;;;5.20;99.90;;;;;;5032671;28;20447;-74
2024/01/28 05:34:19;;;;;;;3.13;1.30;;;5.20;99.90;;;;;;5033107;28;20186;-74
2024/01/28 05:36:49;;;;;;;4.10;1.30;;;5.20;99.90;;;;;;5032845;28;20273;-73
2024/01/28 05:39:15;;;;;;;4.90;1.03;;;5.20;99.90;;;;;;5015676;28;20190;-74
2024/01/28 05:41:41;;;;;;;1.90;1.30;;;5.20;99.90;;;;;;5032571;28;20422;-74
2024/01/28 05:44:07;;;;;;;2.60;1.10;;;5.20;99.90;;;;;;5033940;28;20429;-73
2024/01/28 05:46:33;;;;;;;1.90;1.07;;;5.20;99.90;;;;;;5031713;28;20189;-74
2024/01/28 05:48:59;;;;;;;1.27;1.17;;;5.20;99.90;;;;;;5031659;28;20473;-73
2024/01/28 05:51:26;;;;;;;3.80;1.23;;;5.20;99.90;;;;;;5030030;28;20950;-73
2024/01/28 05:53:56;;;;;;;2.80;1.13;;;5.30;99.90;;;;;;5031920;28;20247;-74
2024/01/28 05:56:22;;;;;;;3.73;1.40;;;5.20;99.90;;;;;;5031818;28;20425;-73
2024/01/28 05:58:51;;;;;;;1.60;1.20;;;5.20;99.90;;;;;;5032749;28;20486;-74
2024/01/28 06:01:16;;;;;;;2.63;1.30;;;5.20;99.90;;;;;;5032364;28;20236;-73
2024/01/28 06:03:42;;;;;;;4.33;1.40;;;5.20;99.90;;;;;;5032529;28;20421;-74
2024/01/28 06:06:08;;;;;;;3.07;1.90;;;5.10;99.90;;;;;;5030380;28;20679;-73
2024/01/28 06:08:34;;;;;;;4.13;1.53;;;5.10;99.90;;;;;;5032238;28;20307;-73
2024/01/28 06:10:59;;;;;;;6.17;1.43;;;5.00;99.90;;;;;;5032368;28;20205;-73
2024/01/28 06:13:25;;;;;;;3.00;1.53;;;5.00;99.90;;;;;;5032552;28;20417;-74
2024/01/28 06:15:52;;;;;;;5.60;1.57;;;4.90;99.90;;;;;;5030750;28;20192;-74
2024/01/28 06:18:19;;;;;;;1.87;1.10;;;4.90;99.90;;;;;;5046892;28;20429;-73
2024/01/28 06:20:45;;;;;;;1.43;1.10;;;4.90;99.90;;;;;;5032177;28;20428;-74
2024/01/28 06:23:12;;;;;;;1.50;0.90;;;4.80;99.90;;;;;;5032240;28;20430;-73
2024/01/28 06:25:37;;;;;;;5.30;1.10;;;4.70;99.90;;;;;;5031821;28;20773;-73
2024/01/28 06:28:03;;;;;;;2.17;1.40;;;4.70;99.90;;;;;;5030078;28;20439;-74
2024/01/28 06:30:32;;;;;;;2.40;1.10;;;4.60;99.90;;;;;;5031706;28;20583;-73
2024/01/28 06:32:58;;;;;;;1.60;1.13;;;4.60;99.90;;;;;;5030875;28;20425;-73
2024/01/28 06:35:24;;;;;;;1.93;1.17;;;4.60;99.90;;;;;;5030715;28;20424;-74
2024/01/28 06:37:50;;;;;;;2.30;1.27;;;4.50;99.90;;;;;;5032419;28;20433;-74
2024/01/28 06:40:15;;;;;;;2.80;1.30;;;4.40;99.90;;;;;;5031829;28;20894;-73
2024/01/28 06:42:41;;;;;;;1.60;1.50;;;4.30;99.90;;;;;;5031821;28;20193;-74
2024/01/28 06:45:10;;;;;;;3.10;1.47;;;4.30;99.90;;;;;;5031595;28;20185;-73
2024/01/28 06:47:36;;;;;;;2.00;1.10;;;4.20;99.90;;;;;;5031018;28;20206;-73
2024/01/28 06:50:02;;;;;;;2.93;1.53;;;4.20;99.90;;;;;;5030040;28;21038;-74
2024/01/28 06:52:28;;;;;;;1.70;1.07;;;4.20;99.90;;;;;;5031345;28;21600;-74
2024/01/28 06:54:53;;;;;;;1.60;1.00;;;4.20;99.90;;;;;;5031298;28;20432;-74
2024/01/28 06:57:19;;;;;;;1.80;1.37;;;4.20;99.90;;;;;;5031076;28;20670;-73
2024/01/28 06:59:45;;;;;;;2.10;1.20;;;4.10;99.90;;;;;;5030272;28;20185;-73
2024/01/28 07:02:12;;;;;;;2.10;1.13;;;4.10;99.90;;;;;;5031187;28;20613;-74
2024/01/28 07:04:38;;;;;;;1.53;1.13;;;4.10;99.90;;;;;;5030535;28;20456;-73
2024/01/28 07:07:04;;;;;;;1.10;0.90;;;4.10;99.90;;;;;;5030210;28;20492;-73
2024/01/28 07:09:30;;;;;;;2.13;1.03;;;4.10;99.90;;;;;;5025262;28;20481;-73
2024/01/28 07:11:56;;;;;;;1.60;0.93;;;4.00;99.90;;;;;;5024672;28;20890;-73
2024/01/28 07:14:22;;;;;;;1.20;1.10;;;4.00;99.90;;;;;;5029577;28;20437;-74
2024/01/28 07:16:49;;;;;;;2.37;1.60;;;4.00;99.90;;;;;;5026624;28;20515;-74
2024/01/28 07:19:15;;;;;;;1.20;0.90;;;4.10;99.90;;;;;;5029820;28;20543;-73
2024/01/28 07:21:40;;;;;;;4.47;1.30;;;4.00;99.90;;;;;;5027475;28;20525;-74
2024/01/28 07:24:06;;;;;;;1.00;0.80;;;4.00;99.90;;;;;;5030302;28;20202;-73
2024/01/28 07:26:32;;;;;;;0.80;0.80;;;4.00;99.90;;;;;;5028331;28;20267;-74
2024/01/28 07:28:58;;;;;;;3.20;1.10;;;4.00;99.90;;;;;;5028247;28;20571;-73
2024/01/28 07:31:23;;;;;;;3.20;1.00;;;3.90;99.90;;;;;;5026537;28;20707;-73
2024/01/28 07:33:49;;;;;;;1.43;1.13;;;3.90;99.90;;;;;;5028310;28;20188;-73
2024/01/28 07:36:16;;;;;;;1.80;0.93;;;4.00;99.90;;;;;;5024818;28;20189;-73
2024/01/28 07:38:42;;;;;;;1.40;1.10;;;4.00;99.90;;;;;;5026535;28;20268;-73
2024/01/28 07:41:14;;;;;;;1.83;0.97;;;4.10;99.90;;;;;;5030653;28;20442;-73
2024/01/28 07:43:43;;;;;;;1.70;0.93;;;4.30;99.90;;;;;;5029759;28;20496;-73
2024/01/28 07:46:09;;;;;;;1.80;1.20;;;4.40;99.50;;;;;;5029227;28;20843;-73
2024/01/28 07:48:35;;;;;;;1.47;1.13;;;4.50;99.30;;;;;;5030030;28;20507;-74
2024/01/28 07:51:02;;;;;;;2.00;1.17;;;4.70;98.20;;;;;;5030338;28;20472;-73
2024/01/28 07:53:28;;;;;;;1.50;0.87;;;4.80;97.90;;;;;;5030886;28;20447;-73
2024/01/28 07:55:54;;;;;;;1.10;1.00;;;4.80;98.00;;;;;;5028999;28;20424;-73
2024/01/28 07:58:20;;;;;;;1.90;1.30;;;4.80;97.80;;;;;;5031235;28;20186;-73
2024/01/28 08:00:46;;;;;;;2.13;1.30;;;4.80;97.80;;;;;;5026089;28;20451;-73
2024/01/28 08:03:11;;;;;;;2.20;1.50;;;4.80;98.10;;;;;;5029816;28;20512;-74
2024/01/28 08:05:37;;;;;;;6.47;1.60;;;4.80;98.10;;;;;;5023868;28;20185;-73
2024/01/28 08:08:03;;;;;;;1.97;1.53;;;4.80;98.10;;;;;;5028406;28;20247;-74
2024/01/28 08:10:28;;;;;;;2.20;1.30;;;4.90;97.70;;;;;;5027905;28;20204;-74
2024/01/28 08:12:54;;;;;;;1.57;1.40;;;5.00;98.10;;;;;;5025782;28;20927;-73
2024/01/28 08:15:20;;;;;;;2.37;1.80;;;5.10;98.10;;;;;;5043634;28;20186;-73
2024/01/28 08:17:46;;;;;;;1.40;1.30;;;5.20;98.30;;;;;;5028770;28;20189;-73
2024/01/28 08:20:11;;;;;;;2.80;1.30;;;5.40;98.10;;;;;;5030281;28;20214;-74
2024/01/28 08:22:38;;;;;;;2.20;1.40;;;5.50;98.10;;;;;;5029032;28;20194;-73
2024/01/28 08:25:04;;;;;;;4.60;1.57;;;5.80;97.70;;;;;;5029718;28;20997;-74
2024/01/28 08:27:30;;;;;;;2.33;1.33;;;6.00;97.50;;;;;;5029832;28;20847;-73
2024/01/28 08:29:56;;;;;;;1.63;1.03;;;6.20;97.30;;;;;;5030106;28;20471;-74
2024/01/28 08:32:22;;;;;;;2.40;1.30;;;6.40;97.30;;;;;;5030157;28;20562;-74
2024/01/28 08:34:49;;;;;;;3.07;1.40;;;6.60;97.20;;;;;;5030375;28;21287;-74
2024/01/28 08:37:15;;;;;;;2.90;1.70;;;6.80;97.00;;;;;;5027585;28;20225;-74
2024/01/28 08:39:41;;;;;;;1.90;1.67;;;7.00;96.60;;;;;;5030468;28;20437;-74
2024/01/28 08:42:07;;;;;;;2.60;1.47;;;7.20;97.00;;;;;;5029624;28;20501;-74
2024/01/28 08:44:32;;;;;;;3.07;1.83;;;7.40;96.50;;;;;;5026852;28;20182;-74
2024/01/28 08:46:58;;;;;;;6.97;1.73;;;7.60;95.80;;;;;;5013197;28;20201;-74
2024/01/28 08:49:24;;;;;;;3.67;1.97;;;7.80;95.10;;;;;;5031456;28;20301;-74
2024/01/28 08:51:50;;;;;;;3.90;1.87;;;7.90;94.80;;;;;;5030550;28;20943;-73
2024/01/28 08:54:15;;;;;;;2.03;1.50;;;8.10;94.70;;;;;;5032808;28;20186;-73
2024/01/28 08:56:41;;;;;;;2.10;1.50;;;8.30;94.60;;;;;;5029530;28;20695;-73
2024/01/28 08:59:07;;;;;;;4.83;1.80;;;8.40;93.50;;;;;;5032503;28;20187;-73
2024/01/28 09:01:34;;;;;;;3.60;1.70;;;8.60;93.00;;;;;;5030001;28;20276;-73
2024/01/28 09:04:00;;;;;;;2.10;1.90;;;8.70;93.50;;;;;;5032545;28;20446;-73
2024/01/28 09:06:26;;;;;;;2.60;1.40;;;8.80;93.70;;;;;;5015290;28;20429;-73
2024/01/28 09:08:51;;;;;;;3.27;1.70;;;8.90;92.00;;;;;;5031403;28;20313;-74
2024/01/28 09:11:17;;;;;;;1.70;1.30;;;9.00;92.40;;;;;;5031073;28;20436;-73
2024/01/28 09:13:43;;;;;;;1.90;1.37;;;9.10;92.90;;;;;;5031671;28;20189;-74
2024/01/28 09:16:08;;;;;;;2.47;1.13;;;9.20;91.90;;;;;;5027132;28;20539;-73
2024/01/28 09:18:34;;;;;;;4.17;1.60;;;9.40;91.90;;;;;;5030525;28;20178;-73
2024/01/28 09:21:00;;;;;;;2.33;1.37;;;9.50;91.20;;;;;;5030926;28;20187;-73
2024/01/28 09:23:25;;;;;;;2.03;1.50;;;9.60;91.50;;;;;;5033312;28;20177;-75
2024/01/28 09:25:51;;;;;;;1.50;1.40;;;9.70;90.90;;;;;;5032603;28;20178;-74
2024/01/28 09:28:17;;;;;;;1.73;1.60;;;9.80;89.60;;;;;;5031331;28;20658;-73
2024/01/28 09:30:43;;;;;;;3.23;1.50;;;9.90;89.80;;;;;;5033039;28;20231;-74
2024/01/28 09:33:12;;;;;;;2.10;1.20;;;10.00;87.30;;;;;;5031309;28;20197;-72
2024/01/28 09:35:39;;;;;;;4.17;1.77;;;10.10;90.00;;;;;;5016831;28;20432;-73
2024/01/28 09:38:07;;;;;;;1.90;1.60;;;10.20;87.90;;;;;;5031992;28;20431;-73
2024/01/28 09:40:33;;;;;;;2.30;1.73;;;10.30;86.70;;;;;;5032876;28;20421;-73
2024/01/28 09:43:07;;;;;;;3.97;1.50;;;10.40;85.50;;;;;;5033030;28;20439;-73
2024/01/28 09:45:33;;;;;;;3.93;1.60;;;10.50;85.20;;;;;;5032440;28;20461;-73
2024/01/28 09:47:59;;;;;;;2.43;1.43;;;10.50;82.80;;;;;;5032875;28;20480;-73
2024/01/28 09:50:25;;;;;;;1.63;1.53;;;10.60;84.90;;;;;;5032668;28;20263;-73
2024/01/28 09:52:51;;;;;;;3.57;2.10;;;10.70;83.50;;;;;;5033421;28;20845;-73
2024/01/28 09:55:16;;;;;;;1.93;1.40;;;10.80;83.30;;;;;;5032061;28;20212;-73
2024/01/28 09:57:44;;;;;;;4.20;1.50;;;10.90;83.10;;;;;;5027193;28;20218;-73
2024/01/28 10:00:11;;;;;;;1.20;1.10;;;11.00;83.40;;;;;;5029064;28;20214;-73
2024/01/28 10:02:39;;;;;;;3.20;2.00;;;11.20;82.80;;;;;;5031393;28;20790;-73
2024/01/28 10:05:10;;;;;;;1.80;1.40;;;11.40;79.80;;;;;;5030528;28;20434;-73
2024/01/28 10:07:43;;;;;;;2.10;1.53;;;11.50;80.80;;;;;;5032409;28;20428;-72
2024/01/28 10:10:12;;;;;;;1.93;1.50;;;11.70;80.10;;;;;;5031894;28;20479;-73
2024/01/28 10:12:38;;;;;;;2.17;1.43;;;11.90;77.70;;;;;;5016959;28;20431;-73
2024/01/28 10:15:13;;;;;;;3.30;2.07;;;12.00;78.10;;;;;;5026303;28;20446;-73
2024/01/28 10:17:39;;;;;;;2.27;1.20;;;12.30;74.90;;;;;;5030229;28;20718;-73
2024/01/28 10:20:07;;;;;;;1.27;0.90;;;12.30;74.60;;;;;;5030961;28;20420;-73
2024/01/28 10:22:33;;;;;;;2.33;1.47;;;12.50;74.50;;;;;;5028717;28;20194;-73
2024/01/28 10:24:59;;;;;;;5.23;1.53;;;12.60;73.60;;;;;;5029818;28;20437;-73
2024/01/28 10:27:24;;;;;;;2.03;1.30;;;12.90;74.50;;;;;;5029174;28;20755;-74
2024/01/28 10:29:50;;;;;;;1.70;1.50;;;13.00;70.40;;;;;;5021739;28;21118;-73
2024/01/28 10:32:17;;;;;;;2.37;1.33;;;13.20;70.40;;;;;;5010036;28;21091;-73
2024/01/28 10:34:42;;;;;;;2.20;1.47;;;13.30;70.20;;;;;;5028402;28;20238;-73
2024/01/28 10:37:12;;;;;;;3.87;1.33;;;13.40;68.10;;;;;;5025713;28;20499;-73
2024/01/28 10:39:40;;;;;;;2.10;1.43;;;13.60;68.40;;;;;;5026009;28;20286;-73
2024/01/28 10:42:12;;;;;;;1.87;1.23;;;13.70;68.90;;;;;;5027612;28;20464;-73
2024/01/28 10:44:45;;;;;;;3.00;1.30;;;13.70;67.80;;;;;;5029004;28;20432;-74
2024/01/28 10:47:12;;;;;;;2.80;1.40;;;13.60;66.90;;;;;;5024589;28;20467;-73
2024/01/28 10:49:42;;;;;;;2.50;1.60;;;13.30;68.60;;;;;;5027939;28;20472;-73
2024/01/28 10:52:09;;;;;;;2.70;1.77;;;12.90;68.10;;;;;;5024099;28;20444;-73
2024/01/28 10:54:40;;;;;;;2.37;1.70;;;12.80;70.00;;;;;;5029274;28;20441;-73
2024/01/28 10:57:06;;;;;;;1.90;1.40;;;12.60;73.20;;;;;;5043493;28;20493;-73
2024/01/28 10:59:37;;;;;;;2.00;1.40;;;12.50;75.50;;;;;;5044256;28;20486;-73
2024/01/28 11:02:04;;;;;;;2.50;1.43;;;12.60;74.30;;;;;;5043572;28;20443;-73
2024/01/28 11:04:30;;;;;;;2.80;1.53;;;12.60;72.80;;;;;;5027667;28;20444;-73
2024/01/28 11:06:56;;;;;;;4.37;1.77;;;12.50;73.00;;;;;;5028222;28;20571;-73
2024/01/28 11:09:23;;;;;;;1.77;1.50;;;12.50;72.80;;;;;;5028036;28;20464;-73
2024/01/28 11:11:49;;;;;;;3.00;1.70;;;12.40;71.80;;;;;;5027969;28;20662;-73
2024/01/28 11:14:14;;;;;;;2.10;0.90;;;12.30;73.60;;;;;;5025902;28;20547;-73
2024/01/28 11:16:40;;;;;;;2.93;1.67;;;12.40;76.30;;;;;;5027268;28;20182;-73
2024/01/28 11:19:07;;;;;;;2.47;1.60;;;12.60;74.40;;;;;;5028234;28;20246;-73
2024/01/28 11:21:38;;;;;;;2.23;1.40;;;12.60;73.80;;;;;;5027781;28;20434;-73
2024/01/28 11:24:11;;;;;;;2.27;1.30;;;12.50;74.90;;;;;;5027098;28;20550;-73
2024/01/28 11:26:45;;;;;;;2.70;1.70;;;12.40;76.30;;;;;;5009851;28;20432;-73
2024/01/28 11:29:11;;;;;;;2.40;1.60;;;12.50;75.80;;;;;;5023337;28;20475;-73
2024/01/28 11:31:39;;;;;;;2.17;1.47;;;12.70;75.20;;;;;;5028739;28;20448;-73
2024/01/28 11:34:21;;;;;;;2.53;1.33;;;12.60;75.50;;;;;;5029513;28;20520;-73
2024/01/28 11:36:50;;;;;;;2.50;1.80;;;12.70;76.70;;;;;;5028620;28;20459;-73
2024/01/28 11:39:26;;;;;;;2.60;1.50;;;12.70;74.90;;;;;;5026523;28;20439;-73
2024/01/28 11:41:53;;;;;;;4.03;1.73;;;12.70;75.70;;;;;;5043762;28;20424;-73
2024/01/28 11:44:19;;;;;;;1.60;1.50;;;13.10;73.60;;;;;;5024979;28;20429;-73
2024/01/28 11:46:46;;;;;;;1.97;1.43;;;13.50;74.70;;;;;;5027030;28;20794;-74
2024/01/28 11:49:12;;;;;;;1.70;1.50;;;14.20;73.30;;;;;;5027155;28;20524;-73
2024/01/28 11:51:38;;;;;;;1.80;1.43;;;14.50;70.20;;;;;;5027690;28;20475;-73
2024/01/28 11:54:04;;;;;;;2.13;1.50;;;14.90;69.30;;;;;;5027621;28;20905;-73
2024/01/28 11:56:36;;;;;;;2.70;1.43;;;15.40;66.90;;;;;;5028331;28;20263;-73
2024/01/28 11:59:03;;;;;;;1.83;1.43;;;16.30;62.20;;;;;;5026244;28;20433;-73
2024/01/28 12:01:28;;;;;;;2.23;1.40;;;17.60;60.00;;;;;;5012995;28;20428;-73
2024/01/28 12:03:55;;;;;;;2.30;1.40;;;19.30;56.30;;;;;;5028009;28;20460;-73
2024/01/28 12:06:27;;;;;;;3.53;1.60;;;21.10;51.60;;;;;;5025213;28;20183;-73
2024/01/28 12:08:52;;;;;;;2.73;1.90;;;22.60;46.10;;;;;;5026101;28;20484;-73
2024/01/28 12:11:21;;;;;;;1.27;1.10;;;23.00;43.90;;;;;;5024166;28;20941;-73
2024/01/28 12:13:48;;;;;;;2.57;1.20;;;23.80;41.00;;;;;;5059113;28;20429;-74
2024/01/28 12:16:19;;;;;;;1.97;1.40;;;23.70;39.70;;;;;;5028221;28;20598;-74
2024/01/28 12:18:44;;;;;;;2.33;1.70;;;23.80;39.10;;;;;;5028164;28;20445;-73
2024/01/28 12:21:17;;;;;;;2.10;1.33;;;24.30;39.10;;;;;;5029946;28;20424;-73
2024/01/28 12:23:59;;;;;;;1.90;1.60;;;25.20;37.70;;;;;;5031228;28;20719;-73
2024/01/28 12:26:29;;;;;;;1.57;1.20;;;25.80;36.20;;;;;;5030278;28;20460;-73
2024/01/28 12:28:56;;;;;;;3.23;1.60;;;26.20;35.20;;;;;;5030525;28;20903;-73
2024/01/28 12:31:22;;;;;;;2.03;1.60;;;25.50;34.30;;;;;;5032187;28;20443;-74
2024/01/28 12:33:49;;;;;;;1.90;1.63;;;25.50;33.60;;;;;;5031784;28;20523;-73
2024/01/28 12:36:16;;;;;;;1.50;1.33;;;24.60;33.90;;;;;;5031148;28;20432;-73
2024/01/28 12:38:42;;;;;;;3.17;1.33;;;23.00;33.60;;;;;;5032395;28;20939;-73
2024/01/28 12:41:11;;;;;;;2.70;1.57;;;20.90;34.90;;;;;;5029586;28;20535;-73
2024/01/28 12:43:37;;;;;;;3.50;1.53;;;19.20;36.20;;;;;;5030133;28;20490;-73
2024/01/28 12:46:04;;;;;;;2.70;2.03;;;17.70;38.20;;;;;;5029606;28;20449;-73
2024/01/28 12:48:29;;;;;;;2.60;1.37;;;16.70;40.00;;;;;;5031317;28;20471;-73
2024/01/28 12:50:55;;;;;;;3.70;1.97;;;15.80;41.10;;;;;;5031979;28;20429;-73